sensor_id;sensor_type;location;lat;lon;timestamp;P1;durP1;ratioP1;P2;durP2;ratioP2
10005;SDS011;5042;42.626;23.382;2023-01-04T00:01:26;6.77;;;5.30;;
10005;SDS011;5042;42.626;23.382;2023-01-04T00:03:53;7.97;;;6.00;;
10005;SDS011;5042;42.626;23.382;2023-01-04T00:06:19;7.87;;;5.37;;
10005;SDS011;5042;42.626;23.382;2023-01-04T00:08:47;6.70;;;5.40;;
10005;SDS011;5042;42.626;23.382;2023-01-04T00:11:14;6.80;;;5.57;;
10005;SDS011;5042;42.626;23.382;2023-01-04T00:13:42;9.77;;;5.53;;
10005;SDS011;5042;42.626;23.382;2023-01-04T00:16:12;5.83;;;5.10;;
10005;SDS011;5042;42.626;23.382;2023-01-04T00:18:40;6.90;;;5.07;;
10005;SDS011;5042;42.626;23.382;2023-01-04T00:21:08;8.47;;;5.80;;
10005;SDS011;5042;42.626;23.382;2023-01-04T00:23:36;8.63;;;5.30;;
10005;SDS011;5042;42.626;23.382;2023-01-04T00:26:07;6.97;;;5.60;;
10005;SDS011;5042;42.626;23.382;2023-01-04T00:28:34;7.63;;;5.30;;
10005;SDS011;5042;42.626;23.382;2023-01-04T00:31:01;7.43;;;5.40;;
10005;SDS011;5042;42.626;23.382;2023-01-04T00:33:31;8.53;;;5.60;;
10005;SDS011;5042;42.626;23.382;2023-01-04T00:36:01;7.20;;;5.40;;
10005;SDS011;5042;42.626;23.382;2023-01-04T00:38:29;6.00;;;5.17;;
10005;SDS011;5042;42.626;23.382;2023-01-04T00:40:57;6.10;;;4.73;;
10005;SDS011;5042;42.626;23.382;2023-01-04T00:43:24;6.23;;;4.90;;
10005;SDS011;5042;42.626;23.382;2023-01-04T00:45:51;7.57;;;5.07;;
10005;SDS011;5042;42.626;23.382;2023-01-04T00:48:17;6.63;;;5.00;;
10005;SDS011;5042;42.626;23.382;2023-01-04T00:50:46;9.20;;;5.47;;
10005;SDS011;5042;42.626;23.382;2023-01-04T00:53:14;7.13;;;5.93;;
10005;SDS011;5042;42.626;23.382;2023-01-04T00:55:42;5.63;;;4.83;;
10005;SDS011;5042;42.626;23.382;2023-01-04T00:58:08;7.37;;;5.60;;
10005;SDS011;5042;42.626;23.382;2023-01-04T01:00:35;7.50;;;5.40;;
10005;SDS011;5042;42.626;23.382;2023-01-04T01:03:04;5.83;;;4.87;;
10005;SDS011;5042;42.626;23.382;2023-01-04T01:05:31;6.83;;;5.40;;
10005;SDS011;5042;42.626;23.382;2023-01-04T01:08:00;5.37;;;4.80;;
10005;SDS011;5042;42.626;23.382;2023-01-04T01:10:48;7.93;;;5.87;;
10005;SDS011;5042;42.626;23.382;2023-01-04T01:13:15;6.87;;;5.57;;
10005;SDS011;5042;42.626;23.382;2023-01-04T01:15:42;8.00;;;5.83;;
10005;SDS011;5042;42.626;23.382;2023-01-04T01:18:09;7.90;;;5.67;;
10005;SDS011;5042;42.626;23.382;2023-01-04T01:20:39;6.17;;;4.87;;
10005;SDS011;5042;42.626;23.382;2023-01-04T01:23:09;8.47;;;5.53;;
10005;SDS011;5042;42.626;23.382;2023-01-04T01:25:37;8.23;;;5.50;;
10005;SDS011;5042;42.626;23.382;2023-01-04T01:28:04;6.73;;;4.93;;
10005;SDS011;5042;42.626;23.382;2023-01-04T01:30:30;8.73;;;5.63;;
10005;SDS011;5042;42.626;23.382;2023-01-04T01:32:57;8.57;;;5.40;;
10005;SDS011;5042;42.626;23.382;2023-01-04T01:35:24;9.93;;;5.67;;
10005;SDS011;5042;42.626;23.382;2023-01-04T01:37:51;7.77;;;5.77;;
10005;SDS011;5042;42.626;23.382;2023-01-04T01:40:19;7.70;;;5.80;;
10005;SDS011;5042;42.626;23.382;2023-01-04T01:42:45;8.70;;;5.77;;
10005;SDS011;5042;42.626;23.382;2023-01-04T01:45:21;8.40;;;5.97;;
10005;SDS011;5042;42.626;23.382;2023-01-04T01:47:57;7.03;;;5.43;;
10005;SDS011;5042;42.626;23.382;2023-01-04T01:50:30;10.17;;;6.13;;
10005;SDS011;5042;42.626;23.382;2023-01-04T01:53:01;7.60;;;5.70;;
10005;SDS011;5042;42.626;23.382;2023-01-04T01:55:33;7.80;;;5.80;;
10005;SDS011;5042;42.626;23.382;2023-01-04T01:58:01;8.80;;;5.83;;
10005;SDS011;5042;42.626;23.382;2023-01-04T02:00:30;9.83;;;5.03;;
10005;SDS011;5042;42.626;23.382;2023-01-04T02:03:02;7.47;;;5.43;;
10005;SDS011;5042;42.626;23.382;2023-01-04T02:05:35;8.23;;;5.77;;
10005;SDS011;5042;42.626;23.382;2023-01-04T02:08:03;8.57;;;6.10;;
10005;SDS011;5042;42.626;23.382;2023-01-04T02:10:32;9.60;;;6.27;;
10005;SDS011;5042;42.626;23.382;2023-01-04T02:13:01;8.27;;;5.60;;
10005;SDS011;5042;42.626;23.382;2023-01-04T02:15:35;6.73;;;5.47;;
10005;SDS011;5042;42.626;23.382;2023-01-04T02:18:11;10.53;;;6.60;;
10005;SDS011;5042;42.626;23.382;2023-01-04T02:20:45;8.97;;;5.30;;
10005;SDS011;5042;42.626;23.382;2023-01-04T02:26:27;8.30;;;6.00;;
10005;SDS011;5042;42.626;23.382;2023-01-04T02:29:22;9.07;;;6.03;;
10005;SDS011;5042;42.626;23.382;2023-01-04T02:32:26;9.37;;;6.53;;
10005;SDS011;5042;42.626;23.382;2023-01-04T02:35:07;9.33;;;6.17;;
10005;SDS011;5042;42.626;23.382;2023-01-04T02:37:44;7.93;;;6.20;;
10005;SDS011;5042;42.626;23.382;2023-01-04T02:40:17;8.73;;;6.30;;
10005;SDS011;5042;42.626;23.382;2023-01-04T02:42:49;8.07;;;6.10;;
10005;SDS011;5042;42.626;23.382;2023-01-04T02:45:42;10.43;;;7.13;;
10005;SDS011;5042;42.626;23.382;2023-01-04T02:48:19;8.30;;;6.00;;
10005;SDS011;5042;42.626;23.382;2023-01-04T02:51:03;6.93;;;5.90;;
10005;SDS011;5042;42.626;23.382;2023-01-04T02:53:32;10.37;;;6.37;;
10005;SDS011;5042;42.626;23.382;2023-01-04T02:56:07;7.83;;;5.80;;
10005;SDS011;5042;42.626;23.382;2023-01-04T02:58:45;7.90;;;6.37;;
10005;SDS011;5042;42.626;23.382;2023-01-04T03:01:33;9.93;;;6.93;;
10005;SDS011;5042;42.626;23.382;2023-01-04T03:04:29;8.40;;;6.57;;
10005;SDS011;5042;42.626;23.382;2023-01-04T03:07:23;8.93;;;6.73;;
10005;SDS011;5042;42.626;23.382;2023-01-04T03:09:53;8.63;;;6.57;;
10005;SDS011;5042;42.626;23.382;2023-01-04T03:12:27;8.80;;;6.80;;
10005;SDS011;5042;42.626;23.382;2023-01-04T03:15:00;9.77;;;6.43;;
10005;SDS011;5042;42.626;23.382;2023-01-04T03:17:36;10.07;;;6.87;;
10005;SDS011;5042;42.626;23.382;2023-01-04T03:20:09;11.90;;;7.23;;
10005;SDS011;5042;42.626;23.382;2023-01-04T03:22:39;8.83;;;6.77;;
10005;SDS011;5042;42.626;23.382;2023-01-04T03:25:28;9.83;;;6.73;;
10005;SDS011;5042;42.626;23.382;2023-01-04T03:28:15;9.07;;;7.20;;
10005;SDS011;5042;42.626;23.382;2023-01-04T03:31:05;10.37;;;7.30;;
10005;SDS011;5042;42.626;23.382;2023-01-04T03:33:55;9.20;;;6.67;;
10005;SDS011;5042;42.626;23.382;2023-01-04T03:36:42;10.57;;;7.47;;
10005;SDS011;5042;42.626;23.382;2023-01-04T03:39:18;9.40;;;6.63;;
10005;SDS011;5042;42.626;23.382;2023-01-04T03:42:10;9.37;;;7.10;;
10005;SDS011;5042;42.626;23.382;2023-01-04T03:45:05;10.47;;;7.07;;
10005;SDS011;5042;42.626;23.382;2023-01-04T03:47:57;8.40;;;6.33;;
10005;SDS011;5042;42.626;23.382;2023-01-04T03:50:46;9.43;;;6.73;;
10005;SDS011;5042;42.626;23.382;2023-01-04T03:53:18;8.03;;;6.07;;
10005;SDS011;5042;42.626;23.382;2023-01-04T03:55:46;11.13;;;7.10;;
10005;SDS011;5042;42.626;23.382;2023-01-04T03:58:14;10.77;;;7.10;;
10005;SDS011;5042;42.626;23.382;2023-01-04T04:00:41;10.40;;;6.80;;
10005;SDS011;5042;42.626;23.382;2023-01-04T04:03:08;11.67;;;7.23;;
10005;SDS011;5042;42.626;23.382;2023-01-04T04:05:36;10.53;;;7.07;;
10005;SDS011;5042;42.626;23.382;2023-01-04T04:08:24;10.17;;;7.30;;
10005;SDS011;5042;42.626;23.382;2023-01-04T04:10:54;9.90;;;7.60;;
10005;SDS011;5042;42.626;23.382;2023-01-04T04:13:22;10.10;;;7.20;;
10005;SDS011;5042;42.626;23.382;2023-01-04T04:15:51;9.43;;;6.33;;
10005;SDS011;5042;42.626;23.382;2023-01-04T04:18:18;10.37;;;7.03;;
10005;SDS011;5042;42.626;23.382;2023-01-04T04:20:45;10.43;;;7.10;;
10005;SDS011;5042;42.626;23.382;2023-01-04T04:23:12;12.57;;;6.93;;
10005;SDS011;5042;42.626;23.382;2023-01-04T04:25:40;11.17;;;7.17;;
10005;SDS011;5042;42.626;23.382;2023-01-04T04:28:07;14.07;;;8.37;;
10005;SDS011;5042;42.626;23.382;2023-01-04T04:30:34;11.23;;;7.07;;
10005;SDS011;5042;42.626;23.382;2023-01-04T04:33:01;9.40;;;7.00;;
10005;SDS011;5042;42.626;23.382;2023-01-04T04:35:28;11.53;;;7.07;;
10005;SDS011;5042;42.626;23.382;2023-01-04T04:37:55;12.93;;;7.67;;
10005;SDS011;5042;42.626;23.382;2023-01-04T04:40:21;10.17;;;6.87;;
10005;SDS011;5042;42.626;23.382;2023-01-04T04:43:18;11.20;;;6.70;;
10005;SDS011;5042;42.626;23.382;2023-01-04T04:45:45;9.60;;;6.60;;
10005;SDS011;5042;42.626;23.382;2023-01-04T04:48:11;9.53;;;6.53;;
10005;SDS011;5042;42.626;23.382;2023-01-04T04:50:38;9.50;;;6.67;;
10005;SDS011;5042;42.626;23.382;2023-01-04T04:53:05;10.00;;;7.07;;
10005;SDS011;5042;42.626;23.382;2023-01-04T04:55:32;8.83;;;6.77;;
10005;SDS011;5042;42.626;23.382;2023-01-04T04:57:58;8.23;;;6.40;;
10005;SDS011;5042;42.626;23.382;2023-01-04T05:00:26;10.50;;;7.10;;
10005;SDS011;5042;42.626;23.382;2023-01-04T05:02:53;12.77;;;7.37;;
10005;SDS011;5042;42.626;23.382;2023-01-04T05:05:23;14.17;;;7.53;;
10005;SDS011;5042;42.626;23.382;2023-01-04T05:07:50;11.17;;;7.37;;
10005;SDS011;5042;42.626;23.382;2023-01-04T05:10:17;15.17;;;7.97;;
10005;SDS011;5042;42.626;23.382;2023-01-04T05:12:43;11.20;;;7.53;;
10005;SDS011;5042;42.626;23.382;2023-01-04T05:15:24;13.20;;;7.97;;
10005;SDS011;5042;42.626;23.382;2023-01-04T05:17:54;11.70;;;7.93;;
10005;SDS011;5042;42.626;23.382;2023-01-04T05:20:20;12.37;;;7.80;;
10005;SDS011;5042;42.626;23.382;2023-01-04T05:22:47;12.63;;;7.93;;
10005;SDS011;5042;42.626;23.382;2023-01-04T05:25:14;12.53;;;7.70;;
10005;SDS011;5042;42.626;23.382;2023-01-04T05:27:41;11.87;;;8.23;;
10005;SDS011;5042;42.626;23.382;2023-01-04T05:30:08;13.10;;;8.27;;
10005;SDS011;5042;42.626;23.382;2023-01-04T05:32:55;10.80;;;7.53;;
10005;SDS011;5042;42.626;23.382;2023-01-04T05:35:23;10.60;;;7.40;;
10005;SDS011;5042;42.626;23.382;2023-01-04T05:37:50;11.57;;;8.53;;
10005;SDS011;5042;42.626;23.382;2023-01-04T05:40:16;11.10;;;7.80;;
10005;SDS011;5042;42.626;23.382;2023-01-04T05:42:45;12.43;;;8.40;;
10005;SDS011;5042;42.626;23.382;2023-01-04T05:45:12;12.07;;;7.90;;
10005;SDS011;5042;42.626;23.382;2023-01-04T05:47:40;12.43;;;8.07;;
10005;SDS011;5042;42.626;23.382;2023-01-04T05:50:09;10.57;;;7.53;;
10005;SDS011;5042;42.626;23.382;2023-01-04T05:52:36;10.43;;;7.03;;
10005;SDS011;5042;42.626;23.382;2023-01-04T05:55:03;13.83;;;8.30;;
10005;SDS011;5042;42.626;23.382;2023-01-04T05:57:30;11.03;;;7.33;;
10005;SDS011;5042;42.626;23.382;2023-01-04T06:00:15;13.17;;;7.80;;
10005;SDS011;5042;42.626;23.382;2023-01-04T06:02:42;10.47;;;7.17;;
10005;SDS011;5042;42.626;23.382;2023-01-04T06:05:11;10.73;;;7.70;;
10005;SDS011;5042;42.626;23.382;2023-01-04T06:07:38;12.00;;;7.80;;
10005;SDS011;5042;42.626;23.382;2023-01-04T06:10:06;9.17;;;6.90;;
10005;SDS011;5042;42.626;23.382;2023-01-04T06:12:35;10.10;;;7.00;;
10005;SDS011;5042;42.626;23.382;2023-01-04T06:15:01;11.73;;;7.47;;
10005;SDS011;5042;42.626;23.382;2023-01-04T06:17:29;9.90;;;7.13;;
10005;SDS011;5042;42.626;23.382;2023-01-04T06:19:55;11.07;;;7.10;;
10005;SDS011;5042;42.626;23.382;2023-01-04T06:22:24;10.17;;;6.27;;
10005;SDS011;5042;42.626;23.382;2023-01-04T06:24:52;10.63;;;6.33;;
10005;SDS011;5042;42.626;23.382;2023-01-04T06:27:19;10.80;;;6.87;;
10005;SDS011;5042;42.626;23.382;2023-01-04T06:29:46;10.73;;;7.20;;
10005;SDS011;5042;42.626;23.382;2023-01-04T06:32:12;8.37;;;5.83;;
10005;SDS011;5042;42.626;23.382;2023-01-04T06:34:39;10.07;;;6.00;;
10005;SDS011;5042;42.626;23.382;2023-01-04T06:37:06;7.93;;;5.63;;
10005;SDS011;5042;42.626;23.382;2023-01-04T06:39:35;7.87;;;5.57;;
10005;SDS011;5042;42.626;23.382;2023-01-04T06:42:02;9.20;;;5.97;;
10005;SDS011;5042;42.626;23.382;2023-01-04T06:44:29;9.70;;;6.03;;
10005;SDS011;5042;42.626;23.382;2023-01-04T06:46:56;9.10;;;5.97;;
10005;SDS011;5042;42.626;23.382;2023-01-04T06:49:22;8.87;;;6.10;;
10005;SDS011;5042;42.626;23.382;2023-01-04T06:51:49;11.33;;;6.27;;
10005;SDS011;5042;42.626;23.382;2023-01-04T06:54:16;8.30;;;5.87;;
10005;SDS011;5042;42.626;23.382;2023-01-04T06:56:44;8.70;;;5.87;;
10005;SDS011;5042;42.626;23.382;2023-01-04T06:59:11;8.10;;;5.90;;
10005;SDS011;5042;42.626;23.382;2023-01-04T07:01:37;11.03;;;6.27;;
10005;SDS011;5042;42.626;23.382;2023-01-04T07:04:04;9.73;;;5.70;;
10005;SDS011;5042;42.626;23.382;2023-01-04T07:06:31;8.30;;;5.53;;
10005;SDS011;5042;42.626;23.382;2023-01-04T07:08:58;9.83;;;6.20;;
10005;SDS011;5042;42.626;23.382;2023-01-04T07:11:24;8.03;;;6.07;;
10005;SDS011;5042;42.626;23.382;2023-01-04T07:13:53;8.23;;;5.33;;
10005;SDS011;5042;42.626;23.382;2023-01-04T07:16:19;9.13;;;6.27;;
10005;SDS011;5042;42.626;23.382;2023-01-04T07:18:46;10.83;;;7.27;;
10005;SDS011;5042;42.626;23.382;2023-01-04T07:21:13;9.90;;;5.90;;
10005;SDS011;5042;42.626;23.382;2023-01-04T07:23:39;9.13;;;6.03;;
10005;SDS011;5042;42.626;23.382;2023-01-04T07:26:06;9.50;;;6.43;;
10005;SDS011;5042;42.626;23.382;2023-01-04T07:28:33;8.83;;;6.20;;
10005;SDS011;5042;42.626;23.382;2023-01-04T07:31:18;10.37;;;6.20;;
10005;SDS011;5042;42.626;23.382;2023-01-04T07:33:47;8.30;;;6.27;;
10005;SDS011;5042;42.626;23.382;2023-01-04T07:36:14;8.03;;;6.23;;
10005;SDS011;5042;42.626;23.382;2023-01-04T07:38:41;8.60;;;5.57;;
10005;SDS011;5042;42.626;23.382;2023-01-04T07:41:08;10.10;;;6.40;;
10005;SDS011;5042;42.626;23.382;2023-01-04T07:43:35;12.20;;;5.83;;
10005;SDS011;5042;42.626;23.382;2023-01-04T07:46:01;8.70;;;6.00;;
10005;SDS011;5042;42.626;23.382;2023-01-04T07:48:30;11.63;;;6.37;;
10005;SDS011;5042;42.626;23.382;2023-01-04T07:50:56;9.27;;;6.20;;
10005;SDS011;5042;42.626;23.382;2023-01-04T07:53:23;9.57;;;6.37;;
10005;SDS011;5042;42.626;23.382;2023-01-04T07:55:53;10.90;;;6.30;;
10005;SDS011;5042;42.626;23.382;2023-01-04T07:58:20;8.43;;;5.97;;
10005;SDS011;5042;42.626;23.382;2023-01-04T08:00:47;7.60;;;5.70;;
10005;SDS011;5042;42.626;23.382;2023-01-04T08:03:14;7.07;;;5.80;;
10005;SDS011;5042;42.626;23.382;2023-01-04T08:05:42;6.50;;;4.97;;
10005;SDS011;5042;42.626;23.382;2023-01-04T08:08:09;9.33;;;5.93;;
10005;SDS011;5042;42.626;23.382;2023-01-04T08:10:35;7.00;;;5.40;;
10005;SDS011;5042;42.626;23.382;2023-01-04T08:13:02;8.67;;;5.87;;
10005;SDS011;5042;42.626;23.382;2023-01-04T08:15:29;9.97;;;5.97;;
10005;SDS011;5042;42.626;23.382;2023-01-04T08:17:56;7.10;;;5.33;;
10005;SDS011;5042;42.626;23.382;2023-01-04T08:20:22;8.47;;;5.80;;
10005;SDS011;5042;42.626;23.382;2023-01-04T08:22:51;8.83;;;5.47;;
10005;SDS011;5042;42.626;23.382;2023-01-04T08:25:18;7.57;;;5.73;;
10005;SDS011;5042;42.626;23.382;2023-01-04T08:27:45;8.03;;;4.63;;
10005;SDS011;5042;42.626;23.382;2023-01-04T08:30:11;7.70;;;5.17;;
10005;SDS011;5042;42.626;23.382;2023-01-04T08:32:39;9.00;;;5.53;;
10005;SDS011;5042;42.626;23.382;2023-01-04T08:35:06;7.93;;;5.77;;
10005;SDS011;5042;42.626;23.382;2023-01-04T08:37:33;8.20;;;5.37;;
10005;SDS011;5042;42.626;23.382;2023-01-04T08:40:02;7.40;;;5.43;;
10005;SDS011;5042;42.626;23.382;2023-01-04T08:42:29;9.80;;;5.73;;
10005;SDS011;5042;42.626;23.382;2023-01-04T08:44:56;6.93;;;4.87;;
10005;SDS011;5042;42.626;23.382;2023-01-04T08:47:25;6.93;;;5.20;;
10005;SDS011;5042;42.626;23.382;2023-01-04T08:49:52;8.90;;;6.20;;
10005;SDS011;5042;42.626;23.382;2023-01-04T08:52:18;6.53;;;5.43;;
10005;SDS011;5042;42.626;23.382;2023-01-04T08:54:45;8.67;;;5.70;;
10005;SDS011;5042;42.626;23.382;2023-01-04T08:57:14;10.10;;;6.13;;
10005;SDS011;5042;42.626;23.382;2023-01-04T08:59:41;8.47;;;5.97;;
10005;SDS011;5042;42.626;23.382;2023-01-04T09:02:17;10.10;;;6.23;;
10005;SDS011;5042;42.626;23.382;2023-01-04T09:04:45;10.03;;;6.17;;
10005;SDS011;5042;42.626;23.382;2023-01-04T09:07:12;8.23;;;6.00;;
10005;SDS011;5042;42.626;23.382;2023-01-04T09:09:39;9.40;;;5.70;;
10005;SDS011;5042;42.626;23.382;2023-01-04T09:12:06;9.57;;;6.57;;
10005;SDS011;5042;42.626;23.382;2023-01-04T09:14:34;9.33;;;5.60;;
10005;SDS011;5042;42.626;23.382;2023-01-04T09:17:01;8.97;;;6.07;;
10005;SDS011;5042;42.626;23.382;2023-01-04T09:19:28;10.03;;;6.23;;
10005;SDS011;5042;42.626;23.382;2023-01-04T09:21:55;9.90;;;5.70;;
10005;SDS011;5042;42.626;23.382;2023-01-04T09:24:21;7.60;;;5.40;;
10005;SDS011;5042;42.626;23.382;2023-01-04T09:26:48;8.17;;;5.60;;
10005;SDS011;5042;42.626;23.382;2023-01-04T09:29:15;7.00;;;5.80;;
10005;SDS011;5042;42.626;23.382;2023-01-04T09:31:44;10.67;;;6.00;;
10005;SDS011;5042;42.626;23.382;2023-01-04T09:34:11;10.77;;;6.50;;
10005;SDS011;5042;42.626;23.382;2023-01-04T09:36:38;8.43;;;6.10;;
10005;SDS011;5042;42.626;23.382;2023-01-04T09:39:05;8.07;;;6.27;;
10005;SDS011;5042;42.626;23.382;2023-01-04T09:41:33;13.43;;;5.93;;
10005;SDS011;5042;42.626;23.382;2023-01-04T09:44:02;9.80;;;6.00;;
10005;SDS011;5042;42.626;23.382;2023-01-04T09:46:40;9.97;;;6.50;;
10005;SDS011;5042;42.626;23.382;2023-01-04T09:49:15;9.13;;;6.00;;
10005;SDS011;5042;42.626;23.382;2023-01-04T09:51:50;8.43;;;5.83;;
10005;SDS011;5042;42.626;23.382;2023-01-04T09:54:21;7.73;;;6.00;;
10005;SDS011;5042;42.626;23.382;2023-01-04T09:56:52;9.80;;;6.27;;
10005;SDS011;5042;42.626;23.382;2023-01-04T09:59:24;9.93;;;6.60;;
10005;SDS011;5042;42.626;23.382;2023-01-04T10:01:58;10.87;;;5.53;;
10005;SDS011;5042;42.626;23.382;2023-01-04T10:04:35;9.13;;;5.27;;
10005;SDS011;5042;42.626;23.382;2023-01-04T10:07:09;8.57;;;5.20;;
10005;SDS011;5042;42.626;23.382;2023-01-04T10:09:43;9.63;;;5.87;;
10005;SDS011;5042;42.626;23.382;2023-01-04T10:12:14;9.40;;;5.67;;
10005;SDS011;5042;42.626;23.382;2023-01-04T10:14:51;8.23;;;5.43;;
10005;SDS011;5042;42.626;23.382;2023-01-04T10:17:32;9.70;;;6.20;;
10005;SDS011;5042;42.626;23.382;2023-01-04T10:20:38;10.23;;;6.27;;
10005;SDS011;5042;42.626;23.382;2023-01-04T10:23:25;9.60;;;6.27;;
10005;SDS011;5042;42.626;23.382;2023-01-04T10:26:03;10.37;;;6.40;;
10005;SDS011;5042;42.626;23.382;2023-01-04T10:28:45;10.90;;;6.57;;
10005;SDS011;5042;42.626;23.382;2023-01-04T10:31:21;9.90;;;5.57;;
10005;SDS011;5042;42.626;23.382;2023-01-04T10:33:55;8.77;;;6.13;;
10005;SDS011;5042;42.626;23.382;2023-01-04T10:36:27;9.77;;;6.60;;
10005;SDS011;5042;42.626;23.382;2023-01-04T10:38:58;8.97;;;5.67;;
10005;SDS011;5042;42.626;23.382;2023-01-04T10:41:27;9.57;;;5.57;;
10005;SDS011;5042;42.626;23.382;2023-01-04T10:44:00;9.67;;;6.03;;
10005;SDS011;5042;42.626;23.382;2023-01-04T10:46:34;8.80;;;5.67;;
10005;SDS011;5042;42.626;23.382;2023-01-04T10:49:10;9.90;;;5.83;;
10005;SDS011;5042;42.626;23.382;2023-01-04T10:51:44;8.00;;;5.87;;
10005;SDS011;5042;42.626;23.382;2023-01-04T10:54:17;10.07;;;6.33;;
10005;SDS011;5042;42.626;23.382;2023-01-04T10:56:50;9.60;;;6.40;;
10005;SDS011;5042;42.626;23.382;2023-01-04T10:59:24;9.60;;;5.87;;
10005;SDS011;5042;42.626;23.382;2023-01-04T11:02:00;9.83;;;6.27;;
10005;SDS011;5042;42.626;23.382;2023-01-04T11:04:41;8.83;;;6.10;;
10005;SDS011;5042;42.626;23.382;2023-01-04T11:07:12;9.73;;;6.43;;
10005;SDS011;5042;42.626;23.382;2023-01-04T11:09:45;8.97;;;6.40;;
10005;SDS011;5042;42.626;23.382;2023-01-04T11:12:18;8.00;;;5.80;;
10005;SDS011;5042;42.626;23.382;2023-01-04T11:14:47;8.77;;;6.03;;
10005;SDS011;5042;42.626;23.382;2023-01-04T11:17:14;11.97;;;7.33;;
10005;SDS011;5042;42.626;23.382;2023-01-04T11:19:42;10.47;;;6.40;;
10005;SDS011;5042;42.626;23.382;2023-01-04T11:22:10;8.40;;;6.13;;
10005;SDS011;5042;42.626;23.382;2023-01-04T11:24:44;10.47;;;6.80;;
10005;SDS011;5042;42.626;23.382;2023-01-04T11:27:17;10.77;;;5.97;;
10005;SDS011;5042;42.626;23.382;2023-01-04T11:29:48;10.57;;;6.57;;
10005;SDS011;5042;42.626;23.382;2023-01-04T11:32:23;8.50;;;5.70;;
10005;SDS011;5042;42.626;23.382;2023-01-04T11:35:02;8.50;;;6.03;;
10005;SDS011;5042;42.626;23.382;2023-01-04T11:37:30;9.80;;;6.47;;
10005;SDS011;5042;42.626;23.382;2023-01-04T11:40:17;9.30;;;6.47;;
10005;SDS011;5042;42.626;23.382;2023-01-04T11:42:47;9.73;;;6.93;;
10005;SDS011;5042;42.626;23.382;2023-01-04T11:45:16;10.87;;;6.57;;
10005;SDS011;5042;42.626;23.382;2023-01-04T11:47:52;9.93;;;6.43;;
10005;SDS011;5042;42.626;23.382;2023-01-04T11:50:33;7.53;;;5.83;;
10005;SDS011;5042;42.626;23.382;2023-01-04T11:55:48;9.27;;;6.13;;
10005;SDS011;5042;42.626;23.382;2023-01-04T11:58:15;7.53;;;5.53;;
10005;SDS011;5042;42.626;23.382;2023-01-04T12:00:48;8.00;;;5.80;;
10005;SDS011;5042;42.626;23.382;2023-01-04T12:03:16;7.67;;;5.27;;
10005;SDS011;5042;42.626;23.382;2023-01-04T12:05:50;8.60;;;6.13;;
10005;SDS011;5042;42.626;23.382;2023-01-04T12:08:22;8.60;;;5.20;;
10005;SDS011;5042;42.626;23.382;2023-01-04T12:10:53;9.20;;;5.80;;
10005;SDS011;5042;42.626;23.382;2023-01-04T12:13:21;8.33;;;5.33;;
10005;SDS011;5042;42.626;23.382;2023-01-04T12:15:52;8.93;;;6.03;;
10005;SDS011;5042;42.626;23.382;2023-01-04T12:18:28;8.23;;;5.27;;
10005;SDS011;5042;42.626;23.382;2023-01-04T12:20:57;7.23;;;5.37;;
10005;SDS011;5042;42.626;23.382;2023-01-04T12:23:27;8.93;;;5.50;;
10005;SDS011;5042;42.626;23.382;2023-01-04T12:25:54;9.30;;;5.77;;
10005;SDS011;5042;42.626;23.382;2023-01-04T12:28:32;6.63;;;5.20;;
10005;SDS011;5042;42.626;23.382;2023-01-04T12:33:53;9.50;;;5.57;;
10005;SDS011;5042;42.626;23.382;2023-01-04T12:39:25;8.30;;;5.90;;
10005;SDS011;5042;42.626;23.382;2023-01-04T12:42:09;8.43;;;5.50;;
10005;SDS011;5042;42.626;23.382;2023-01-04T12:47:42;7.23;;;4.90;;
10005;SDS011;5042;42.626;23.382;2023-01-04T12:50:27;9.63;;;5.83;;
10005;SDS011;5042;42.626;23.382;2023-01-04T12:52:58;7.33;;;5.77;;
10005;SDS011;5042;42.626;23.382;2023-01-04T12:58:40;7.00;;;4.80;;
10005;SDS011;5042;42.626;23.382;2023-01-04T13:01:25;6.50;;;5.07;;
10005;SDS011;5042;42.626;23.382;2023-01-04T13:03:54;6.33;;;4.83;;
10005;SDS011;5042;42.626;23.382;2023-01-04T13:06:24;8.10;;;5.50;;
10005;SDS011;5042;42.626;23.382;2023-01-04T13:08:55;7.50;;;5.13;;
10005;SDS011;5042;42.626;23.382;2023-01-04T13:11:40;7.70;;;5.17;;
10005;SDS011;5042;42.626;23.382;2023-01-04T13:14:19;7.50;;;5.27;;
10005;SDS011;5042;42.626;23.382;2023-01-04T13:16:58;7.50;;;5.37;;
10005;SDS011;5042;42.626;23.382;2023-01-04T13:19:45;9.40;;;5.63;;
10005;SDS011;5042;42.626;23.382;2023-01-04T13:22:17;8.80;;;5.00;;
10005;SDS011;5042;42.626;23.382;2023-01-04T13:24:47;8.30;;;5.50;;
10005;SDS011;5042;42.626;23.382;2023-01-04T13:27:20;9.67;;;5.53;;
10005;SDS011;5042;42.626;23.382;2023-01-04T13:29:49;10.23;;;5.70;;
10005;SDS011;5042;42.626;23.382;2023-01-04T13:32:19;11.50;;;5.80;;
10005;SDS011;5042;42.626;23.382;2023-01-04T13:34:52;8.33;;;5.50;;
10005;SDS011;5042;42.626;23.382;2023-01-04T13:37:27;8.50;;;5.57;;
10005;SDS011;5042;42.626;23.382;2023-01-04T13:40:01;8.67;;;6.17;;
10005;SDS011;5042;42.626;23.382;2023-01-04T13:42:43;9.63;;;6.27;;
10005;SDS011;5042;42.626;23.382;2023-01-04T13:45:24;8.57;;;5.60;;
10005;SDS011;5042;42.626;23.382;2023-01-04T13:48:10;8.13;;;5.97;;
10005;SDS011;5042;42.626;23.382;2023-01-04T13:50:40;8.67;;;6.13;;
10005;SDS011;5042;42.626;23.382;2023-01-04T13:53:16;9.07;;;6.13;;
10005;SDS011;5042;42.626;23.382;2023-01-04T13:55:49;8.90;;;5.67;;
10005;SDS011;5042;42.626;23.382;2023-01-04T13:58:18;9.63;;;6.27;;
10005;SDS011;5042;42.626;23.382;2023-01-04T14:00:47;9.37;;;5.93;;
10005;SDS011;5042;42.626;23.382;2023-01-04T14:03:29;7.63;;;5.70;;
10005;SDS011;5042;42.626;23.382;2023-01-04T14:06:09;9.93;;;5.77;;
10005;SDS011;5042;42.626;23.382;2023-01-04T14:08:40;10.00;;;5.43;;
10005;SDS011;5042;42.626;23.382;2023-01-04T14:11:17;11.50;;;6.13;;
10005;SDS011;5042;42.626;23.382;2023-01-04T14:14:12;8.50;;;6.27;;
10005;SDS011;5042;42.626;23.382;2023-01-04T14:16:43;9.33;;;6.20;;
10005;SDS011;5042;42.626;23.382;2023-01-04T14:19:26;8.30;;;5.50;;
10005;SDS011;5042;42.626;23.382;2023-01-04T14:22:17;9.37;;;6.30;;
10005;SDS011;5042;42.626;23.382;2023-01-04T14:24:58;8.63;;;5.87;;
10005;SDS011;5042;42.626;23.382;2023-01-04T14:27:35;9.63;;;5.90;;
10005;SDS011;5042;42.626;23.382;2023-01-04T14:30:13;9.83;;;6.00;;
10005;SDS011;5042;42.626;23.382;2023-01-04T14:32:52;12.60;;;7.87;;
10005;SDS011;5042;42.626;23.382;2023-01-04T14:35:20;12.47;;;7.27;;
10005;SDS011;5042;42.626;23.382;2023-01-04T14:37:47;10.50;;;6.83;;
10005;SDS011;5042;42.626;23.382;2023-01-04T14:40:17;10.50;;;7.13;;
10005;SDS011;5042;42.626;23.382;2023-01-04T14:42:52;11.40;;;6.37;;
10005;SDS011;5042;42.626;23.382;2023-01-04T14:45:19;9.90;;;7.10;;
10005;SDS011;5042;42.626;23.382;2023-01-04T14:47:45;12.40;;;7.17;;
10005;SDS011;5042;42.626;23.382;2023-01-04T14:50:12;9.20;;;6.53;;
10005;SDS011;5042;42.626;23.382;2023-01-04T14:52:41;12.10;;;7.13;;
10005;SDS011;5042;42.626;23.382;2023-01-04T14:55:15;10.07;;;6.80;;
10005;SDS011;5042;42.626;23.382;2023-01-04T14:57:42;11.90;;;6.73;;
10005;SDS011;5042;42.626;23.382;2023-01-04T15:00:13;10.90;;;6.63;;
10005;SDS011;5042;42.626;23.382;2023-01-04T15:02:41;12.30;;;7.27;;
10005;SDS011;5042;42.626;23.382;2023-01-04T15:05:09;13.50;;;7.47;;
10005;SDS011;5042;42.626;23.382;2023-01-04T15:07:37;12.20;;;8.03;;
10005;SDS011;5042;42.626;23.382;2023-01-04T15:10:16;11.80;;;7.93;;
10005;SDS011;5042;42.626;23.382;2023-01-04T15:12:45;12.13;;;7.30;;
10005;SDS011;5042;42.626;23.382;2023-01-04T15:15:13;11.57;;;7.30;;
10005;SDS011;5042;42.626;23.382;2023-01-04T15:17:40;13.43;;;6.97;;
10005;SDS011;5042;42.626;23.382;2023-01-04T15:20:08;10.63;;;7.33;;
10005;SDS011;5042;42.626;23.382;2023-01-04T15:22:35;11.33;;;7.87;;
10005;SDS011;5042;42.626;23.382;2023-01-04T15:25:02;10.60;;;7.47;;
10005;SDS011;5042;42.626;23.382;2023-01-04T15:27:29;13.07;;;6.90;;